Time;durP1;ratioP1;P1;durP2;ratioP2;P2;SDS_P1;SDS_P2;PMS_P1;PMS_P2;Temp;Humidity;BMP_temperature;BMP_pressure;BME280_temperature;BME280_humidity;BME280_pressure;Samples;Min_cycle;Max_cycle;Signal;HPM_P1;HPM_P2
2022/07/25 00:01:56;;;;;;;7.90;7.10;;;17.70;99.90;;;;;;6134757;23;20009;-76
2022/07/25 00:04:24;;;;;;;8.77;7.13;;;17.70;99.90;;;;;;6127709;23;20458;-76
2022/07/25 00:06:52;;;;;;;9.57;8.65;;;17.50;99.90;;;;;;6125364;23;20036;-76
2022/07/25 00:09:19;;;;;;;8.80;7.90;;;17.30;99.90;;;;;;6137037;23;20013;-76
2022/07/25 00:11:47;;;;;;;9.82;7.82;;;17.30;99.90;;;;;;6156036;23;20033;-76
2022/07/25 00:14:15;;;;;;;12.93;9.00;;;17.20;99.90;;;;;;6162277;23;20017;-77
2022/07/25 00:16:43;;;;;;;8.73;7.32;;;17.20;99.90;;;;;;6126472;23;20701;-76
2022/07/25 00:19:10;;;;;;;8.18;7.40;;;17.20;99.90;;;;;;6077871;23;20705;-76
2022/07/25 00:21:38;;;;;;;9.05;6.82;;;17.20;99.90;;;;;;6162589;23;20017;-76
2022/07/25 00:24:06;;;;;;;9.02;8.13;;;17.10;99.90;;;;;;6154145;23;20018;-76
2022/07/25 00:26:35;;;;;;;8.95;7.43;;;17.00;99.90;;;;;;6160606;23;20028;-76
2022/07/25 00:29:07;;;;;;;26.50;9.93;;;17.00;99.90;;;;;;6162092;23;20021;-76
2022/07/25 00:31:35;;;;;;;8.20;7.40;;;16.90;99.90;;;;;;6156214;23;20052;-76
2022/07/25 00:34:03;;;;;;;8.90;7.57;;;16.90;99.90;;;;;;6162825;23;20445;-76
2022/07/25 00:36:31;;;;;;;9.95;7.57;;;16.90;99.90;;;;;;6101436;23;20017;-76
2022/07/25 00:38:59;;;;;;;13.95;8.63;;;17.00;99.90;;;;;;6155831;23;20032;-75
2022/07/25 00:41:26;;;;;;;11.30;9.65;;;17.10;99.90;;;;;;6162928;23;20345;-76
2022/07/25 00:43:54;;;;;;;15.93;9.07;;;17.10;99.90;;;;;;6155332;23;20029;-76
2022/07/25 00:46:22;;;;;;;11.13;8.23;;;17.10;99.90;;;;;;6125461;23;20328;-76
2022/07/25 00:48:50;;;;;;;10.02;7.97;;;17.00;99.90;;;;;;6136502;23;20014;-76
2022/07/25 00:51:18;;;;;;;8.90;8.00;;;17.10;99.90;;;;;;6157297;23;20013;-76
2022/07/25 00:53:46;;;;;;;9.15;7.50;;;17.10;99.90;;;;;;6136818;23;20010;-76
2022/07/25 00:56:15;;;;;;;9.85;8.13;;;17.10;99.90;;;;;;6153102;23;20022;-76
2022/07/25 00:58:44;;;;;;;7.88;7.07;;;16.90;99.90;;;;;;6133470;23;20014;-76
2022/07/25 01:01:12;;;;;;;8.32;7.53;;;16.80;99.90;;;;;;6136069;23;20449;-76
2022/07/25 01:03:40;;;;;;;9.95;7.57;;;16.70;99.90;;;;;;6155969;23;20620;-76
2022/07/25 01:06:08;;;;;;;7.68;6.82;;;16.80;99.90;;;;;;6125658;23;20025;-76
2022/07/25 01:08:36;;;;;;;10.23;8.57;;;16.70;99.90;;;;;;6150833;23;20021;-76
2022/07/25 01:11:04;;;;;;;9.98;8.23;;;16.80;99.90;;;;;;6130771;23;20021;-76
2022/07/25 01:13:33;;;;;;;9.55;8.52;;;16.90;99.90;;;;;;6162557;23;20013;-76
2022/07/25 01:16:01;;;;;;;14.82;7.88;;;16.90;99.90;;;;;;6154022;23;20021;-76
2022/07/25 01:18:28;;;;;;;11.20;7.47;;;16.80;99.90;;;;;;6159882;23;20022;-76
2022/07/25 01:20:56;;;;;;;8.20;7.40;;;16.60;99.90;;;;;;6126477;23;20028;-76
2022/07/25 01:23:24;;;;;;;9.80;7.28;;;16.50;99.90;;;;;;6124511;23;20022;-75
2022/07/25 01:25:52;;;;;;;9.43;7.70;;;16.50;99.90;;;;;;6101289;23;20021;-75
2022/07/25 01:28:20;;;;;;;8.13;7.32;;;16.50;99.90;;;;;;6124710;23;20032;-76
2022/07/25 01:30:48;;;;;;;7.88;6.88;;;16.50;99.90;;;;;;6159451;23;20017;-75
2022/07/25 01:33:17;;;;;;;15.00;7.75;;;16.60;99.90;;;;;;6135929;23;20021;-76
2022/07/25 01:35:45;;;;;;;11.70;7.53;;;16.60;99.90;;;;;;6100526;23;20025;-76
2022/07/25 01:38:13;;;;;;;11.32;7.97;;;16.60;99.90;;;;;;6158295;23;20441;-76
2022/07/25 01:40:42;;;;;;;8.80;7.80;;;16.50;99.90;;;;;;6151325;23;20344;-76
2022/07/25 01:43:10;;;;;;;11.82;8.30;;;16.50;99.90;;;;;;6157563;23;20021;-75
2022/07/25 01:45:38;;;;;;;11.90;8.75;;;16.40;99.90;;;;;;6136347;23;20437;-76
2022/07/25 01:48:07;;;;;;;10.63;9.30;;;16.40;99.90;;;;;;6124948;23;20021;-76
2022/07/25 01:50:35;;;;;;;9.73;8.02;;;16.50;99.90;;;;;;6125393;23;20025;-76
2022/07/25 01:53:03;;;;;;;9.25;7.80;;;16.50;99.90;;;;;;6161737;23;20020;-76
2022/07/25 01:55:31;;;;;;;8.82;7.32;;;16.70;99.90;;;;;;6156061;23;20017;-76
2022/07/25 01:57:59;;;;;;;7.72;6.63;;;16.70;99.90;;;;;;6161656;23;20017;-75
2022/07/25 02:00:27;;;;;;;12.68;8.88;;;16.60;99.90;;;;;;6152301;23;20040;-76
2022/07/25 02:05:41;;;;;;;9.07;8.18;;;16.20;99.90;;;;;;6162163;23;20032;-76
2022/07/25 02:08:08;;;;;;;13.52;9.13;;;16.10;99.90;;;;;;6152599;23;20021;-76
2022/07/25 02:10:37;;;;;;;10.75;9.02;;;16.10;99.90;;;;;;6159947;23;20461;-76
2022/07/25 02:13:05;;;;;;;9.13;8.00;;;16.20;99.90;;;;;;6161965;23;20009;-76
2022/07/25 02:15:34;;;;;;;10.07;8.30;;;16.30;99.90;;;;;;6129696;23;20029;-76
2022/07/25 02:18:02;;;;;;;10.77;9.07;;;16.30;99.90;;;;;;6101321;23;20022;-76
2022/07/25 02:20:29;;;;;;;8.27;7.38;;;16.30;99.90;;;;;;6151954;23;20025;-76
2022/07/25 02:22:57;;;;;;;8.77;7.90;;;16.20;99.90;;;;;;6157807;23;20026;-76
2022/07/25 02:25:25;;;;;;;12.98;10.02;;;16.20;99.90;;;;;;6161689;23;20020;-76
2022/07/25 02:27:53;;;;;;;10.52;9.38;;;16.20;99.90;;;;;;6153839;23;20022;-76
2022/07/25 02:30:20;;;;;;;9.68;7.32;;;16.10;99.90;;;;;;6160559;23;20013;-76
2022/07/25 02:32:48;;;;;;;11.85;9.05;;;16.00;99.90;;;;;;6161679;23;20009;-76
2022/07/25 02:35:16;;;;;;;9.68;8.27;;;15.80;99.90;;;;;;6130867;23;20018;-76
2022/07/25 02:37:44;;;;;;;13.40;8.43;;;15.80;99.90;;;;;;6109796;23;20472;-76
2022/07/25 02:40:12;;;;;;;8.85;8.02;;;15.80;99.90;;;;;;6126572;23;20029;-76
2022/07/25 02:42:40;;;;;;;10.88;8.77;;;15.80;99.90;;;;;;6125521;23;20029;-76
2022/07/25 02:45:08;;;;;;;10.20;9.07;;;15.80;99.90;;;;;;6161733;23;20013;-75
2022/07/25 02:47:37;;;;;;;12.07;9.90;;;15.70;99.90;;;;;;6129039;23;20017;-76
2022/07/25 02:50:05;;;;;;;11.82;9.70;;;15.70;99.90;;;;;;6161597;23;20018;-75
2022/07/25 02:52:35;;;;;;;9.85;8.80;;;15.80;99.90;;;;;;6150777;23;20033;-76
2022/07/25 02:55:03;;;;;;;9.73;8.48;;;15.90;99.90;;;;;;6157511;23;20017;-76
2022/07/25 02:57:36;;;;;;;10.48;9.10;;;15.80;99.90;;;;;;6161691;23;20021;-76
2022/07/25 03:00:06;;;;;;;13.55;8.98;;;15.60;99.90;;;;;;6152986;23;20039;-75
2022/07/25 03:02:35;;;;;;;17.83;10.70;;;15.60;99.90;;;;;;6159654;23;20029;-76
2022/07/25 03:05:11;;;;;;;12.45;9.30;;;15.50;99.90;;;;;;6125417;23;20021;-75
2022/07/25 03:07:40;;;;;;;14.13;10.23;;;15.60;99.90;;;;;;6154430;23;20465;-76
2022/07/25 03:10:09;;;;;;;12.20;10.85;;;15.60;99.90;;;;;;6134807;23;20021;-76
2022/07/25 03:12:39;;;;;;;11.40;10.15;;;15.70;99.90;;;;;;6125163;23;20047;-76
2022/07/25 03:15:09;;;;;;;10.27;8.30;;;15.70;99.90;;;;;;6131296;23;20014;-76
2022/07/25 03:17:37;;;;;;;10.60;9.02;;;15.70;99.90;;;;;;6135381;23;20018;-76
2022/07/25 03:20:06;;;;;;;10.52;8.88;;;15.60;99.90;;;;;;6153070;23;20026;-75
2022/07/25 03:22:34;;;;;;;12.27;10.52;;;15.60;99.90;;;;;;6159027;23;20036;-76
2022/07/25 03:25:02;;;;;;;13.15;10.32;;;15.70;99.90;;;;;;6161825;23;20013;-75
2022/07/25 03:27:30;;;;;;;15.23;10.30;;;15.70;99.90;;;;;;6129621;23;20227;-76
2022/07/25 03:29:58;;;;;;;17.42;10.45;;;15.80;99.90;;;;;;6161257;23;20350;-76
2022/07/25 03:32:26;;;;;;;13.43;9.95;;;15.80;99.90;;;;;;6151320;23;20030;-75
2022/07/25 03:34:54;;;;;;;11.93;10.07;;;15.80;99.90;;;;;;6132341;23;20021;-76
2022/07/25 03:37:21;;;;;;;13.15;11.55;;;15.80;99.90;;;;;;6134830;23;20013;-76
2022/07/25 03:39:49;;;;;;;11.90;9.15;;;15.80;99.90;;;;;;6152856;23;20032;-76
2022/07/25 03:42:17;;;;;;;10.48;9.38;;;15.90;99.90;;;;;;6162544;23;20013;-76
2022/07/25 03:44:50;;;;;;;11.77;8.75;;;15.90;99.90;;;;;;6163725;23;20337;-76
2022/07/25 03:47:18;;;;;;;11.25;9.98;;;15.90;99.90;;;;;;6158000;23;20029;-76
2022/07/25 03:49:47;;;;;;;16.17;10.07;;;16.00;99.90;;;;;;6163047;23;20025;-75
2022/07/25 03:52:15;;;;;;;12.80;11.32;;;16.10;99.90;;;;;;6153501;23;20024;-75
2022/07/25 03:54:42;;;;;;;12.27;11.07;;;16.10;99.90;;;;;;6102540;23;20033;-76
2022/07/25 03:57:11;;;;;;;12.40;10.25;;;16.10;99.90;;;;;;6163031;23;20024;-75
2022/07/25 03:59:38;;;;;;;13.85;9.23;;;16.10;99.90;;;;;;6126322;23;20017;-76
2022/07/25 04:02:06;;;;;;;12.50;10.60;;;16.00;99.90;;;;;;6162734;23;20021;-76
2022/07/25 04:04:34;;;;;;;14.38;10.27;;;15.90;99.90;;;;;;6127062;23;20021;-76
2022/07/25 04:07:02;;;;;;;11.23;10.13;;;15.90;99.90;;;;;;6158634;23;20025;-76
2022/07/25 04:09:30;;;;;;;11.70;10.52;;;16.00;99.90;;;;;;6162701;23;20013;-76
2022/07/25 04:12:01;;;;;;;12.57;9.55;;;16.00;99.90;;;;;;6154971;23;20032;-75
2022/07/25 04:14:29;;;;;;;12.15;8.25;;;16.00;99.90;;;;;;6102418;23;20017;-76
2022/07/25 04:16:56;;;;;;;12.43;9.52;;;15.90;99.90;;;;;;6102738;23;20571;-76
2022/07/25 04:19:24;;;;;;;8.57;7.80;;;15.80;99.90;;;;;;6125634;23;20021;-76
2022/07/25 04:21:55;;;;;;;12.57;10.48;;;15.80;99.90;;;;;;6112591;23;20029;-76
2022/07/25 04:24:23;;;;;;;13.98;10.55;;;15.80;99.90;;;;;;6153346;23;20022;-76
2022/07/25 04:26:50;;;;;;;10.68;9.65;;;15.90;99.90;;;;;;6125248;23;20032;-76
2022/07/25 04:29:18;;;;;;;11.70;9.27;;;16.00;99.90;;;;;;6126762;23;20032;-76
2022/07/25 04:31:46;;;;;;;14.00;11.00;;;16.00;99.90;;;;;;6126011;23;20026;-76
2022/07/25 04:34:14;;;;;;;12.68;10.98;;;16.10;99.90;;;;;;6126199;23;20017;-76
2022/07/25 04:36:41;;;;;;;10.82;9.70;;;16.10;99.90;;;;;;6162166;23;20013;-76
2022/07/25 04:39:09;;;;;;;12.05;9.70;;;16.20;99.90;;;;;;6154894;23;20044;-76
2022/07/25 04:41:37;;;;;;;14.85;10.93;;;16.20;99.90;;;;;;6163002;23;20468;-76
2022/07/25 04:44:06;;;;;;;13.18;10.82;;;16.20;99.90;;;;;;6154519;23;20030;-76
2022/07/25 04:46:34;;;;;;;14.48;10.15;;;16.30;99.90;;;;;;6160527;23;20054;-76
2022/07/25 04:49:02;;;;;;;21.70;9.48;;;16.40;99.90;;;;;;6125938;23;20573;-75
2022/07/25 04:51:30;;;;;;;13.13;11.27;;;16.60;99.90;;;;;;6130136;23;20021;-75
2022/07/25 04:53:58;;;;;;;18.25;10.57;;;16.70;99.90;;;;;;6126730;23;20472;-75
2022/07/25 04:56:25;;;;;;;16.65;10.38;;;17.00;99.90;;;;;;6152520;23;20061;-76
2022/07/25 04:58:53;;;;;;;22.58;12.90;;;17.20;99.90;;;;;;6125813;23;20017;-76
2022/07/25 05:01:21;;;;;;;12.48;9.93;;;17.30;99.90;;;;;;6162187;23;20390;-76
2022/07/25 05:03:48;;;;;;;15.32;10.00;;;17.40;99.90;;;;;;6155630;23;20028;-76
2022/07/25 05:06:18;;;;;;;13.20;9.85;;;17.40;99.90;;;;;;6160885;23;20048;-76
2022/07/25 05:08:46;;;;;;;13.32;11.20;;;17.50;99.90;;;;;;6162046;23;20021;-76
2022/07/25 05:11:13;;;;;;;14.85;10.35;;;17.60;99.90;;;;;;6131753;23;20025;-76
2022/07/25 05:13:41;;;;;;;12.95;10.60;;;17.70;99.90;;;;;;6162522;23;20013;-76
2022/07/25 05:16:09;;;;;;;15.23;10.07;;;17.90;99.90;;;;;;6125536;23;20021;-76
2022/07/25 05:18:37;;;;;;;18.95;11.20;;;18.10;99.90;;;;;;6158526;23;20021;-76
2022/07/25 05:21:04;;;;;;;12.25;10.45;;;18.30;99.90;;;;;;6162154;23;20014;-76
2022/07/25 05:23:32;;;;;;;9.80;8.70;;;18.60;99.90;;;;;;6151178;23;20032;-76
2022/07/25 05:26:00;;;;;;;10.82;9.43;;;18.60;99.90;;;;;;6136589;23;20021;-76
2022/07/25 05:28:27;;;;;;;16.30;11.13;;;18.90;99.90;;;;;;6151881;23;20025;-76
2022/07/25 05:30:55;;;;;;;13.15;9.90;;;19.00;99.90;;;;;;6157891;23;20024;-77
2022/07/25 05:33:23;;;;;;;11.77;10.43;;;19.10;99.90;;;;;;6160996;23;20054;-76
2022/07/25 05:35:51;;;;;;;12.48;9.70;;;19.20;99.90;;;;;;6128512;23;20028;-76
2022/07/25 05:38:19;;;;;;;19.90;12.35;;;19.40;99.90;;;;;;6155175;23;20017;-76
2022/07/25 05:40:48;;;;;;;12.70;11.40;;;19.50;99.90;;;;;;6136432;23;20013;-76
2022/07/25 05:43:15;;;;;;;14.15;11.00;;;19.70;99.90;;;;;;6157257;23;20018;-76
2022/07/25 05:45:43;;;;;;;11.82;10.18;;;19.80;99.90;;;;;;6135882;23;20009;-76
2022/07/25 05:48:11;;;;;;;15.98;10.88;;;19.80;99.90;;;;;;6124565;23;20028;-76
2022/07/25 05:50:39;;;;;;;12.35;10.93;;;19.90;99.90;;;;;;6125262;23;20025;-76
2022/07/25 05:53:07;;;;;;;17.02;12.20;;;19.90;99.90;;;;;;6151380;23;20020;-76
2022/07/25 05:55:34;;;;;;;12.55;11.23;;;20.00;99.90;;;;;;6156036;23;20030;-76
2022/07/25 05:58:08;;;;;;;12.23;10.35;;;20.10;99.90;;;;;;6136847;23;20018;-76
2022/07/25 06:00:38;;;;;;;13.30;10.18;;;20.20;99.90;;;;;;6151533;23;20021;-76
2022/07/25 06:03:05;;;;;;;14.43;10.32;;;20.40;99.90;;;;;;6157378;23;20022;-76
2022/07/25 06:05:33;;;;;;;11.63;9.60;;;20.50;99.90;;;;;;6162026;23;20357;-76
2022/07/25 06:08:01;;;;;;;12.75;9.98;;;20.50;99.90;;;;;;6126588;23;20018;-76
2022/07/25 06:10:28;;;;;;;11.32;10.07;;;20.50;99.90;;;;;;6160122;23;20050;-76
2022/07/25 06:12:56;;;;;;;13.02;10.93;;;20.50;99.90;;;;;;6161688;23;20024;-76
2022/07/25 06:15:26;;;;;;;13.88;10.82;;;20.60;99.90;;;;;;6130085;23;20018;-76
2022/07/25 06:17:54;;;;;;;12.80;10.13;;;20.60;99.90;;;;;;6148204;23;20013;-76
2022/07/25 06:20:22;;;;;;;12.63;10.27;;;20.70;99.90;;;;;;6126084;23;20021;-76
2022/07/25 06:22:49;;;;;;;13.27;9.85;;;20.80;99.90;;;;;;6107933;23;20021;-76
2022/07/25 06:25:17;;;;;;;13.05;10.07;;;20.90;99.90;;;;;;6135312;23;20014;-76
2022/07/25 06:27:46;;;;;;;11.90;10.35;;;21.00;99.90;;;;;;6154535;23;20032;-76
2022/07/25 06:30:13;;;;;;;13.45;9.68;;;21.10;99.90;;;;;;6161179;23;20013;-76
2022/07/25 06:32:48;;;;;;;11.50;10.13;;;21.30;99.90;;;;;;6150407;23;20028;-76
2022/07/25 06:35:16;;;;;;;10.10;8.95;;;21.40;99.90;;;;;;6130947;23;20022;-76
2022/07/25 06:37:44;;;;;;;14.65;11.40;;;21.60;99.90;;;;;;6157660;23;20036;-76
2022/07/25 06:40:13;;;;;;;12.85;10.18;;;21.80;99.90;;;;;;6150902;23;20331;-76
2022/07/25 06:42:45;;;;;;;12.80;10.32;;;21.90;99.90;;;;;;6159278;23;20397;-76
2022/07/25 06:45:14;;;;;;;11.07;9.88;;;21.90;99.90;;;;;;6135719;23;20029;-76
2022/07/25 06:47:42;;;;;;;12.00;10.15;;;22.00;99.90;;;;;;6154675;23;20361;-76
2022/07/25 06:50:14;;;;;;;14.38;10.65;;;21.90;99.90;;;;;;6125005;23;20018;-76
2022/07/25 06:52:41;;;;;;;11.65;9.18;;;22.00;99.90;;;;;;6149708;23;20032;-76
2022/07/25 06:55:11;;;;;;;19.85;11.15;;;22.10;99.90;;;;;;6130758;23;20029;-76
2022/07/25 06:57:39;;;;;;;17.58;11.35;;;22.30;99.90;;;;;;6160696;23;20024;-76
2022/07/25 07:00:10;;;;;;;16.38;11.13;;;22.40;99.90;;;;;;6152046;23;20477;-76
2022/07/25 07:02:51;;;;;;;15.82;10.50;;;22.40;99.90;;;;;;6158511;23;20602;-76
2022/07/25 07:05:20;;;;;;;13.75;9.25;;;22.60;99.90;;;;;;6161291;23;20017;-76
2022/07/25 07:07:48;;;;;;;11.45;10.13;;;22.60;99.90;;;;;;6152859;23;20026;-76
2022/07/25 07:10:28;;;;;;;10.10;8.95;;;22.80;99.90;;;;;;6155193;23;20009;-77
2022/07/25 07:13:14;;;;;;;12.95;10.70;;;23.20;99.90;;;;;;6161393;23;20029;-76
2022/07/25 07:15:48;;;;;;;13.57;9.40;;;23.30;99.90;;;;;;6127522;23;20640;-76
2022/07/25 07:18:18;;;;;;;11.35;10.15;;;23.50;99.90;;;;;;6156590;23;20353;-77
2022/07/25 07:20:46;;;;;;;10.43;8.82;;;23.70;99.90;;;;;;6131507;23;20021;-76
2022/07/25 07:23:15;;;;;;;13.32;10.00;;;23.80;99.90;;;;;;6151692;23;20037;-77
2022/07/25 07:25:45;;;;;;;11.77;9.82;;;23.90;99.90;;;;;;6131583;23;20017;-75
2022/07/25 07:28:15;;;;;;;14.02;10.60;;;24.10;99.90;;;;;;6147759;23;20037;-75
2022/07/25 07:30:43;;;;;;;14.05;10.52;;;24.30;99.90;;;;;;6154400;23;20032;-75
2022/07/25 07:33:34;;;;;;;21.80;9.93;;;24.40;99.90;;;;;;6156245;23;20033;-76
2022/07/25 07:36:03;;;;;;;11.73;9.77;;;24.50;99.90;;;;;;6149046;23;20044;-76
2022/07/25 07:38:30;;;;;;;10.40;9.18;;;24.60;99.90;;;;;;6151549;23;20551;-75
2022/07/25 07:40:58;;;;;;;10.70;9.65;;;24.60;99.90;;;;;;6157113;23;20024;-75
2022/07/25 07:43:26;;;;;;;10.05;9.15;;;24.80;99.90;;;;;;6151561;23;20022;-76
2022/07/25 07:45:59;;;;;;;9.52;8.30;;;25.00;99.90;;;;;;6158501;23;20017;-76
2022/07/25 07:48:28;;;;;;;11.43;9.02;;;25.10;99.90;;;;;;6147129;23;20048;-77
2022/07/25 07:50:58;;;;;;;11.95;10.82;;;25.20;99.90;;;;;;6152864;23;20029;-76
2022/07/25 07:56:17;;;;;;;9.15;8.35;;;25.30;99.90;;;;;;6148441;23;20556;-75
2022/07/25 07:58:45;;;;;;;11.50;10.40;;;25.50;99.90;;;;;;6153643;23;20029;-75
2022/07/25 08:01:16;;;;;;;10.18;9.18;;;25.50;99.90;;;;;;6157072;23;20013;-75
2022/07/25 08:03:52;;;;;;;10.43;9.18;;;25.60;99.90;;;;;;6150313;23;20032;-75
2022/07/25 08:06:19;;;;;;;9.52;8.63;;;25.70;99.90;;;;;;6156432;23;20445;-75
2022/07/25 08:08:47;;;;;;;15.07;10.15;;;25.90;99.90;;;;;;6156858;23;20014;-75
2022/07/25 08:11:15;;;;;;;11.02;9.00;;;25.90;99.90;;;;;;6152460;23;20036;-76
2022/07/25 08:13:43;;;;;;;9.18;8.25;;;26.00;99.90;;;;;;6156714;23;20017;-74
2022/07/25 08:16:12;;;;;;;8.95;8.15;;;26.20;99.90;;;;;;6148648;23;20029;-74
2022/07/25 08:18:40;;;;;;;10.60;9.60;;;26.30;99.90;;;;;;6154692;23;20028;-74
2022/07/25 08:21:08;;;;;;;11.60;9.20;;;26.40;99.90;;;;;;6157272;23;20825;-74
2022/07/25 08:23:37;;;;;;;10.30;9.07;;;26.40;99.90;;;;;;6150698;23;20025;-74
2022/07/25 08:26:09;;;;;;;11.50;7.35;;;26.30;99.90;;;;;;6157220;23;20014;-74
2022/07/25 08:28:47;;;;;;;10.07;9.15;;;26.30;99.90;;;;;;6145542;23;20032;-74
2022/07/25 08:31:47;;;;;;;9.23;8.25;;;26.50;99.90;;;;;;6150332;23;20463;-74
2022/07/25 08:34:24;;;;;;;11.25;10.15;;;26.40;99.90;;;;;;6156581;23;20037;-74
2022/07/25 08:37:02;;;;;;;10.85;9.77;;;26.50;99.90;;;;;;6156913;23;20028;-74
2022/07/25 08:39:44;;;;;;;10.32;9.18;;;26.80;99.90;;;;;;6147450;23;20025;-74
2022/07/25 08:42:20;;;;;;;11.20;9.38;;;27.00;99.90;;;;;;6156097;23;20029;-74
2022/07/25 08:44:58;;;;;;;13.32;9.95;;;27.00;99.90;;;;;;6156832;23;20018;-74
2022/07/25 08:47:27;;;;;;;31.17;11.30;;;27.10;99.90;;;;;;6149691;23;20017;-74
2022/07/25 08:49:55;;;;;;;10.82;9.73;;;27.10;99.90;;;;;;6119067;23;20021;-74
2022/07/25 08:52:34;;;;;;;13.10;10.73;;;27.10;99.90;;;;;;6145851;23;20049;-74
2022/07/25 08:55:12;;;;;;;11.68;9.60;;;27.20;99.90;;;;;;6152530;23;20029;-74
2022/07/25 08:57:44;;;;;;;13.60;10.25;;;27.20;99.90;;;;;;6156874;23;20013;-74
2022/07/25 09:00:22;;;;;;;15.63;9.80;;;27.40;99.90;;;;;;6146998;23;20025;-74
2022/07/25 09:02:52;;;;;;;15.95;10.38;;;27.60;99.90;;;;;;6153587;23;20639;-76
2022/07/25 09:05:24;;;;;;;11.30;9.38;;;27.70;99.90;;;;;;6157031;23;20025;-76
2022/07/25 09:07:54;;;;;;;12.20;10.40;;;27.80;99.90;;;;;;6147431;23;20416;-76
2022/07/25 09:10:27;;;;;;;15.57;9.23;;;27.90;99.90;;;;;;6155024;23;20021;-77
2022/07/25 09:12:58;;;;;;;9.98;9.00;;;27.90;99.90;;;;;;6121124;23;20025;-82
2022/07/25 09:15:29;;;;;;;14.18;9.70;;;28.00;99.90;;;;;;6098759;23;20025;-82
2022/07/25 09:17:59;;;;;;;10.48;9.55;;;28.20;99.90;;;;;;6133334;23;20013;-82
2022/07/25 09:20:45;;;;;;;11.27;10.27;;;28.20;99.90;;;;;;6123568;23;20040;-85
2022/07/25 09:23:27;;;;;;;11.23;9.18;;;28.10;99.90;;;;;;6128171;23;20022;-82
2022/07/25 09:26:05;;;;;;;12.10;10.38;;;28.30;99.90;;;;;;6123003;23;20036;-82
2022/07/25 09:28:41;;;;;;;13.60;10.20;;;28.50;99.90;;;;;;6121861;23;20034;-82
2022/07/25 09:31:10;;;;;;;11.88;9.90;;;28.50;99.90;;;;;;6126243;23;20021;-83
2022/07/25 09:34:06;;;;;;;10.50;9.02;;;28.40;99.90;;;;;;6158965;23;20023;-83
2022/07/25 09:36:38;;;;;;;9.85;8.40;;;28.50;99.90;;;;;;6147462;23;20362;-82
2022/07/25 09:39:06;;;;;;;10.85;9.43;;;28.60;99.90;;;;;;6151985;23;20352;-82
2022/07/25 09:41:34;;;;;;;13.07;9.88;;;28.70;99.90;;;;;;6159501;23;20020;-82
2022/07/25 09:44:03;;;;;;;12.55;10.80;;;28.90;99.90;;;;;;6151283;23;20033;-82
2022/07/25 09:46:31;;;;;;;11.38;10.27;;;29.00;99.90;;;;;;6121209;23;20018;-82
2022/07/25 09:48:59;;;;;;;12.52;11.25;;;29.10;99.90;;;;;;6159133;23;20021;-82
2022/07/25 09:51:29;;;;;;;10.15;9.23;;;29.20;99.90;;;;;;6121244;23;20345;-83
2022/07/25 09:53:56;;;;;;;20.95;10.18;;;29.40;99.90;;;;;;6133109;23;20022;-82
2022/07/25 09:56:24;;;;;;;13.27;10.40;;;29.50;99.90;;;;;;6123246;23;20425;-83
2022/07/25 09:59:00;;;;;;;11.88;10.68;;;29.50;99.90;;;;;;6122227;23;20032;-83
2022/07/25 10:01:38;;;;;;;11.98;10.63;;;29.60;99.90;;;;;;6132499;23;20013;-83
2022/07/25 10:04:17;;;;;;;12.38;11.13;;;29.80;99.90;;;;;;6121733;23;20037;-83
2022/07/25 10:07:03;;;;;;;15.18;10.85;;;29.90;99.90;;;;;;6155938;23;20025;-82
2022/07/25 10:09:31;;;;;;;11.05;9.95;;;30.10;99.90;;;;;;6158810;23;20017;-84
2022/07/25 10:12:10;;;;;;;16.75;9.30;;;30.20;99.90;;;;;;6124805;23;20056;-82
2022/07/25 10:14:39;;;;;;;9.48;8.68;;;30.30;99.90;;;;;;6130423;23;20175;-82
2022/07/25 10:17:07;;;;;;;9.52;8.63;;;30.30;99.90;;;;;;6132468;23;20017;-84
2022/07/25 10:19:46;;;;;;;8.57;6.90;;;30.40;99.90;;;;;;6149616;23;20038;-83
2022/07/25 10:22:48;;;;;;;8.07;7.38;;;30.30;98.60;;;;;;6155725;23;20017;-87
2022/07/25 10:25:24;;;;;;;7.90;7.22;;;30.40;97.30;;;;;;6100113;23;20028;-86
2022/07/25 10:28:05;;;;;;;13.55;7.05;;;30.30;96.50;;;;;;6122685;23;20029;-84
2022/07/25 10:30:37;;;;;;;8.45;6.53;;;30.40;97.70;;;;;;6121281;23;20025;-85
2022/07/25 10:33:14;;;;;;;7.88;7.22;;;30.50;98.80;;;;;;6130378;23;20014;-85
2022/07/25 10:35:42;;;;;;;6.72;6.00;;;30.70;97.90;;;;;;6128237;23;20557;-87
2022/07/25 10:38:10;;;;;;;10.45;7.63;;;30.80;95.30;;;;;;6098347;23;20029;-85
2022/07/25 10:40:46;;;;;;;7.80;6.93;;;30.70;96.20;;;;;;6123188;23;20029;-87
2022/07/25 10:43:18;;;;;;;7.10;6.40;;;30.80;94.80;;;;;;6154694;23;20021;-85
2022/07/25 10:45:55;;;;;;;6.63;6.03;;;30.80;92.80;;;;;;6134640;23;20013;-86
2022/07/25 10:48:31;;;;;;;5.72;4.97;;;30.80;91.50;;;;;;6099625;23;20425;-89
2022/07/25 10:51:03;;;;;;;8.85;7.22;;;30.70;92.90;;;;;;6131230;23;20030;-86
2022/07/25 10:53:38;;;;;;;7.82;7.15;;;30.90;93.00;;;;;;6133189;23;20021;-87
2022/07/25 10:56:16;;;;;;;7.25;6.22;;;31.00;94.20;;;;;;6123451;23;20021;-88
2022/07/25 10:59:00;;;;;;;10.50;6.40;;;31.10;92.00;;;;;;6149084;23;20025;-86
2022/07/25 11:01:33;;;;;;;9.02;7.07;;;31.10;91.90;;;;;;6160707;23;20016;-83
2022/07/25 11:04:13;;;;;;;10.48;6.40;;;31.20;91.70;;;;;;6152078;23;20029;-85
2022/07/25 11:06:44;;;;;;;10.60;7.28;;;31.30;90.80;;;;;;6156876;23;20033;-89
2022/07/25 11:09:19;;;;;;;6.40;5.82;;;31.30;90.80;;;;;;6124860;23;20330;-85
2022/07/25 11:11:58;;;;;;;12.00;6.38;;;31.40;91.10;;;;;;6149148;23;20025;-87
2022/07/25 11:14:31;;;;;;;6.00;5.38;;;31.60;90.00;;;;;;6159544;23;20017;-84
2022/07/25 11:17:19;;;;;;;6.03;5.43;;;31.50;90.70;;;;;;6162347;23;20021;-86
2022/07/25 11:20:04;;;;;;;8.45;6.55;;;31.50;92.30;;;;;;6127290;23;20029;-87
2022/07/25 11:22:33;;;;;;;19.65;8.02;;;31.60;90.60;;;;;;6132275;23;20349;-87
2022/07/25 11:25:09;;;;;;;6.20;5.68;;;31.60;90.10;;;;;;6125029;23;20353;-88
2022/07/25 11:27:59;;;;;;;8.60;7.32;;;31.70;89.80;;;;;;6099176;23;20033;-88
2022/07/25 11:30:28;;;;;;;14.43;7.47;;;31.70;90.10;;;;;;6107964;23;20022;-86
2022/07/25 11:33:00;;;;;;;8.43;6.25;;;31.60;87.50;;;;;;6100055;23;20445;-85
2022/07/25 11:35:31;;;;;;;7.40;6.70;;;31.60;89.40;;;;;;6125059;23;20022;-83
2022/07/25 11:38:01;;;;;;;13.45;5.75;;;31.70;90.40;;;;;;6158736;23;20021;-89
2022/07/25 11:40:41;;;;;;;6.70;6.07;;;31.90;90.00;;;;;;6123312;23;20441;-86
2022/07/25 11:43:19;;;;;;;7.47;6.22;;;32.20;91.00;;;;;;6129315;23;20026;-84
2022/07/25 11:45:57;;;;;;;7.13;5.93;;;32.30;91.70;;;;;;6134551;23;20040;-86
2022/07/25 11:48:38;;;;;;;22.35;7.05;;;32.30;90.90;;;;;;6124879;23;20026;-87
2022/07/25 11:51:17;;;;;;;6.85;6.28;;;32.50;92.20;;;;;;6099782;23;20025;-89
2022/07/25 11:53:47;;;;;;;;;;;32.40;87.60;;;;;;6131823;23;20044;-89
2022/07/25 11:56:20;;;;;;;5.90;5.20;;;32.50;86.30;;;;;;6125457;23;19927;-86
2022/07/25 11:59:08;;;;;;;6.82;5.07;;;32.40;83.20;;;;;;6151166;23;20056;-86
2022/07/25 12:01:40;;;;;;;7.50;6.78;;;32.50;86.10;;;;;;6126346;23;20028;-89
2022/07/25 12:04:36;;;;;;;7.18;6.53;;;32.40;84.60;;;;;;6126300;23;20022;-88
2022/07/25 12:07:04;;;;;;;8.32;7.55;;;32.20;85.30;;;;;;6117744;23;20753;-87
2022/07/25 12:09:33;;;;;;;8.85;6.85;;;32.20;88.40;;;;;;6162466;23;20021;-86
2022/07/25 12:12:06;;;;;;;15.75;7.03;;;32.20;90.00;;;;;;6129361;23;20026;-87
2022/07/25 12:14:43;;;;;;;9.90;7.15;;;32.10;89.20;;;;;;6159917;23;20021;-87
2022/07/25 12:17:10;;;;;;;7.85;7.03;;;32.10;89.50;;;;;;6162070;23;20021;-89
2022/07/25 12:19:42;;;;;;;6.25;5.65;;;32.20;86.60;;;;;;6125312;23;20025;-89
2022/07/25 12:22:13;;;;;;;8.20;5.85;;;32.20;83.60;;;;;;6125797;23;20769;-89
2022/07/25 12:24:48;;;;;;;5.28;4.78;;;32.40;80.60;;;;;;6112142;23;20025;-86
2022/07/25 12:27:22;;;;;;;7.70;4.65;;;32.40;78.20;;;;;;6101435;23;20392;-86
2022/07/25 12:29:51;;;;;;;7.65;5.30;;;32.60;81.50;;;;;;6159808;23;20021;-86
2022/07/25 12:32:19;;;;;;;9.07;4.70;;;32.80;76.10;;;;;;6150867;23;20045;-86
2022/07/25 12:34:48;;;;;;;10.07;5.17;;;32.60;76.60;;;;;;6129022;23;20484;-80
2022/07/25 12:37:16;;;;;;;4.63;4.22;;;32.80;77.80;;;;;;6159498;23;20568;-91
2022/07/25 12:39:48;;;;;;;7.07;5.15;;;32.90;76.70;;;;;;6127289;23;20021;-90
2022/07/25 12:42:18;;;;;;;5.25;4.43;;;32.80;76.70;;;;;;6132808;23;20024;-88
2022/07/25 12:45:26;;;;;;;14.15;4.93;;;32.90;71.10;;;;;;6126062;23;20018;-91
2022/07/25 12:48:03;;;;;;;6.15;4.78;;;33.00;75.60;;;;;;6129783;23;20508;-88
2022/07/25 12:50:32;;;;;;;7.60;4.72;;;33.10;75.20;;;;;;6135784;23;20683;-88
2022/07/25 12:53:00;;;;;;;11.30;4.82;;;33.00;71.60;;;;;;6164813;23;20648;-89
2022/07/25 12:55:31;;;;;;;6.88;4.78;;;33.10;73.10;;;;;;6131641;23;20033;-81
2022/07/25 12:58:08;;;;;;;;;;;33.20;71.50;;;;;;6157832;23;20022;-82
2022/07/25 13:00:38;;;;;;;5.40;5.00;;;33.10;71.30;;;;;;6099226;23;19931;-79
2022/07/25 13:03:07;;;;;;;7.40;4.72;;;33.10;70.30;;;;;;6121749;23;20029;-79